sensor_id;sensor_type;location;lat;lon;timestamp;temperature;humidity
34989;DHT22;21192;40.182;44.516;2023-07-31T00:01:33;24.80;74.30
34989;DHT22;21192;40.182;44.516;2023-07-31T00:03:59;24.80;74.50
34989;DHT22;21192;40.182;44.516;2023-07-31T00:06:25;24.80;74.60
34989;DHT22;21192;40.182;44.516;2023-07-31T00:08:51;24.80;74.70
34989;DHT22;21192;40.182;44.516;2023-07-31T00:11:17;24.80;74.90
34989;DHT22;21192;40.182;44.516;2023-07-31T00:13:43;24.70;75.00
34989;DHT22;21192;40.182;44.516;2023-07-31T00:16:08;24.70;75.10
34989;DHT22;21192;40.182;44.516;2023-07-31T00:18:34;24.70;75.20
34989;DHT22;21192;40.182;44.516;2023-07-31T00:21:00;24.70;75.40
34989;DHT22;21192;40.182;44.516;2023-07-31T00:23:26;24.70;75.60
34989;DHT22;21192;40.182;44.516;2023-07-31T00:25:52;24.70;75.70
34989;DHT22;21192;40.182;44.516;2023-07-31T00:28:18;24.70;75.70
34989;DHT22;21192;40.182;44.516;2023-07-31T00:30:44;24.70;75.90
34989;DHT22;21192;40.182;44.516;2023-07-31T00:33:09;24.70;75.90
34989;DHT22;21192;40.182;44.516;2023-07-31T00:35:35;24.70;76.00
34989;DHT22;21192;40.182;44.516;2023-07-31T00:38:01;24.60;76.00
34989;DHT22;21192;40.182;44.516;2023-07-31T00:40:27;24.60;76.30
34989;DHT22;21192;40.182;44.516;2023-07-31T00:42:53;24.60;76.50
34989;DHT22;21192;40.182;44.516;2023-07-31T00:45:19;24.60;76.50
34989;DHT22;21192;40.182;44.516;2023-07-31T00:47:46;24.60;76.70
34989;DHT22;21192;40.182;44.516;2023-07-31T00:50:12;24.60;76.80
34989;DHT22;21192;40.182;44.516;2023-07-31T00:52:39;24.60;77.00
34989;DHT22;21192;40.182;44.516;2023-07-31T00:55:05;24.60;77.20
34989;DHT22;21192;40.182;44.516;2023-07-31T00:57:32;24.60;77.40
34989;DHT22;21192;40.182;44.516;2023-07-31T00:59:58;24.60;77.70
34989;DHT22;21192;40.182;44.516;2023-07-31T01:02:24;24.50;77.90
34989;DHT22;21192;40.182;44.516;2023-07-31T01:04:50;24.50;78.00
34989;DHT22;21192;40.182;44.516;2023-07-31T01:07:19;24.50;78.30
34989;DHT22;21192;40.182;44.516;2023-07-31T01:10:08;24.50;78.50
34989;DHT22;21192;40.182;44.516;2023-07-31T01:12:38;24.50;78.60
34989;DHT22;21192;40.182;44.516;2023-07-31T01:15:08;24.50;78.70
34989;DHT22;21192;40.182;44.516;2023-07-31T01:17:44;24.40;78.70
34989;DHT22;21192;40.182;44.516;2023-07-31T01:20:17;24.40;79.00
34989;DHT22;21192;40.182;44.516;2023-07-31T01:28:20;24.40;79.10
34989;DHT22;21192;40.182;44.516;2023-07-31T01:30:50;24.40;79.30
34989;DHT22;21192;40.182;44.516;2023-07-31T01:33:17;24.40;79.50
34989;DHT22;21192;40.182;44.516;2023-07-31T01:35:49;24.40;79.70
34989;DHT22;21192;40.182;44.516;2023-07-31T01:38:15;24.30;79.90
34989;DHT22;21192;40.182;44.516;2023-07-31T01:40:44;24.40;80.10
34989;DHT22;21192;40.182;44.516;2023-07-31T01:43:09;24.30;80.00
34989;DHT22;21192;40.182;44.516;2023-07-31T01:45:35;24.30;80.10
34989;DHT22;21192;40.182;44.516;2023-07-31T01:48:01;24.30;80.10
34989;DHT22;21192;40.182;44.516;2023-07-31T01:50:27;24.40;80.10
34989;DHT22;21192;40.182;44.516;2023-07-31T01:52:53;24.40;80.10
34989;DHT22;21192;40.182;44.516;2023-07-31T01:55:19;24.40;80.10
34989;DHT22;21192;40.182;44.516;2023-07-31T01:57:45;24.40;80.20
34989;DHT22;21192;40.182;44.516;2023-07-31T02:00:11;24.40;80.40
34989;DHT22;21192;40.182;44.516;2023-07-31T02:02:37;24.40;80.60
34989;DHT22;21192;40.182;44.516;2023-07-31T02:05:03;24.40;80.60
34989;DHT22;21192;40.182;44.516;2023-07-31T02:07:28;24.40;80.60
34989;DHT22;21192;40.182;44.516;2023-07-31T02:09:54;24.50;80.90
34989;DHT22;21192;40.182;44.516;2023-07-31T02:12:20;24.50;80.90
34989;DHT22;21192;40.182;44.516;2023-07-31T02:14:46;24.50;80.80
34989;DHT22;21192;40.182;44.516;2023-07-31T02:17:12;24.50;80.80
34989;DHT22;21192;40.182;44.516;2023-07-31T02:19:38;24.60;80.80
34989;DHT22;21192;40.182;44.516;2023-07-31T02:22:04;24.60;80.70
34989;DHT22;21192;40.182;44.516;2023-07-31T02:24:30;24.70;80.60
34989;DHT22;21192;40.182;44.516;2023-07-31T02:26:57;24.70;80.10
34989;DHT22;21192;40.182;44.516;2023-07-31T02:29:23;24.80;79.60
34989;DHT22;21192;40.182;44.516;2023-07-31T02:31:49;24.90;79.50
34989;DHT22;21192;40.182;44.516;2023-07-31T02:34:15;25.00;79.70
34989;DHT22;21192;40.182;44.516;2023-07-31T02:36:40;25.10;79.80
34989;DHT22;21192;40.182;44.516;2023-07-31T02:39:06;25.10;79.30
34989;DHT22;21192;40.182;44.516;2023-07-31T02:41:33;25.30;78.90
34989;DHT22;21192;40.182;44.516;2023-07-31T02:43:59;25.50;78.20
34989;DHT22;21192;40.182;44.516;2023-07-31T02:46:25;26.10;76.80
34989;DHT22;21192;40.182;44.516;2023-07-31T02:48:51;26.70;74.40
34989;DHT22;21192;40.182;44.516;2023-07-31T02:51:17;27.30;71.90
34989;DHT22;21192;40.182;44.516;2023-07-31T02:53:43;27.70;69.60
34989;DHT22;21192;40.182;44.516;2023-07-31T02:56:08;28.30;67.30
34989;DHT22;21192;40.182;44.516;2023-07-31T02:58:34;28.80;65.10
34989;DHT22;21192;40.182;44.516;2023-07-31T03:01:02;29.40;63.40
34989;DHT22;21192;40.182;44.516;2023-07-31T03:03:28;30.00;61.40
34989;DHT22;21192;40.182;44.516;2023-07-31T03:05:54;30.70;59.50
34989;DHT22;21192;40.182;44.516;2023-07-31T03:08:20;31.40;58.00
34989;DHT22;21192;40.182;44.516;2023-07-31T03:10:46;32.20;56.60
34989;DHT22;21192;40.182;44.516;2023-07-31T03:13:12;32.90;54.90
34989;DHT22;21192;40.182;44.516;2023-07-31T03:15:38;33.70;53.40
34989;DHT22;21192;40.182;44.516;2023-07-31T03:18:04;34.40;52.10
34989;DHT22;21192;40.182;44.516;2023-07-31T03:20:30;34.80;51.10
34989;DHT22;21192;40.182;44.516;2023-07-31T03:22:55;35.40;50.80
34989;DHT22;21192;40.182;44.516;2023-07-31T03:25:21;36.10;49.00
34989;DHT22;21192;40.182;44.516;2023-07-31T03:27:47;36.80;47.80
34989;DHT22;21192;40.182;44.516;2023-07-31T03:30:13;37.40;46.80
34989;DHT22;21192;40.182;44.516;2023-07-31T03:32:39;38.10;45.70
34989;DHT22;21192;40.182;44.516;2023-07-31T03:35:05;38.80;44.70
34989;DHT22;21192;40.182;44.516;2023-07-31T03:37:31;39.30;43.60
34989;DHT22;21192;40.182;44.516;2023-07-31T03:39:57;39.90;42.90
34989;DHT22;21192;40.182;44.516;2023-07-31T03:42:23;40.30;42.00
34989;DHT22;21192;40.182;44.516;2023-07-31T03:44:48;40.80;41.20
34989;DHT22;21192;40.182;44.516;2023-07-31T03:47:14;41.40;40.40
34989;DHT22;21192;40.182;44.516;2023-07-31T03:49:40;41.70;39.90
34989;DHT22;21192;40.182;44.516;2023-07-31T03:52:06;42.10;39.20
34989;DHT22;21192;40.182;44.516;2023-07-31T03:54:32;42.00;38.40
34989;DHT22;21192;40.182;44.516;2023-07-31T03:56:58;42.10;38.50
34989;DHT22;21192;40.182;44.516;2023-07-31T03:59:24;42.00;38.50
34989;DHT22;21192;40.182;44.516;2023-07-31T04:01:50;42.30;38.30
34989;DHT22;21192;40.182;44.516;2023-07-31T04:04:16;43.10;37.90
34989;DHT22;21192;40.182;44.516;2023-07-31T04:06:42;43.80;37.00
34989;DHT22;21192;40.182;44.516;2023-07-31T04:09:07;44.30;36.30
34989;DHT22;21192;40.182;44.516;2023-07-31T04:11:33;44.90;35.70
34989;DHT22;21192;40.182;44.516;2023-07-31T04:13:59;45.50;35.10
34989;DHT22;21192;40.182;44.516;2023-07-31T04:16:25;46.00;34.40
34989;DHT22;21192;40.182;44.516;2023-07-31T04:18:51;46.50;33.90
34989;DHT22;21192;40.182;44.516;2023-07-31T04:21:17;46.90;33.30
34989;DHT22;21192;40.182;44.516;2023-07-31T04:23:43;47.40;33.00
34989;DHT22;21192;40.182;44.516;2023-07-31T04:26:09;47.70;32.90
34989;DHT22;21192;40.182;44.516;2023-07-31T04:28:35;48.20;32.30
34989;DHT22;21192;40.182;44.516;2023-07-31T04:31:00;48.70;31.70
34989;DHT22;21192;40.182;44.516;2023-07-31T04:33:26;49.10;31.20
34989;DHT22;21192;40.182;44.516;2023-07-31T04:35:53;48.90;31.00
34989;DHT22;21192;40.182;44.516;2023-07-31T04:38:22;49.10;30.80
34989;DHT22;21192;40.182;44.516;2023-07-31T04:40:49;49.30;30.40
34989;DHT22;21192;40.182;44.516;2023-07-31T04:43:15;49.70;30.10
34989;DHT22;21192;40.182;44.516;2023-07-31T04:45:45;50.10;30.00
34989;DHT22;21192;40.182;44.516;2023-07-31T04:48:12;50.30;29.80
34989;DHT22;21192;40.182;44.516;2023-07-31T04:50:38;50.80;29.70
34989;DHT22;21192;40.182;44.516;2023-07-31T04:53:04;50.90;29.60
34989;DHT22;21192;40.182;44.516;2023-07-31T04:55:30;51.30;29.50
34989;DHT22;21192;40.182;44.516;2023-07-31T04:57:57;51.60;29.30
34989;DHT22;21192;40.182;44.516;2023-07-31T05:00:23;51.70;29.10
34989;DHT22;21192;40.182;44.516;2023-07-31T05:02:49;52.00;28.80
34989;DHT22;21192;40.182;44.516;2023-07-31T05:05:14;52.00;28.80
34989;DHT22;21192;40.182;44.516;2023-07-31T05:07:40;51.50;28.90
34989;DHT22;21192;40.182;44.516;2023-07-31T05:10:06;51.00;29.00
34989;DHT22;21192;40.182;44.516;2023-07-31T05:12:32;49.90;29.40
34989;DHT22;21192;40.182;44.516;2023-07-31T05:14:58;48.80;30.20
34989;DHT22;21192;40.182;44.516;2023-07-31T05:17:24;47.50;31.20
34989;DHT22;21192;40.182;44.516;2023-07-31T05:19:50;46.30;32.10
34989;DHT22;21192;40.182;44.516;2023-07-31T05:22:16;44.90;33.20
34989;DHT22;21192;40.182;44.516;2023-07-31T05:24:42;43.40;34.70
34989;DHT22;21192;40.182;44.516;2023-07-31T05:27:08;41.90;36.00
34989;DHT22;21192;40.182;44.516;2023-07-31T05:29:35;40.50;37.60
34989;DHT22;21192;40.182;44.516;2023-07-31T05:32:01;39.50;38.90
34989;DHT22;21192;40.182;44.516;2023-07-31T05:34:27;38.50;40.00
34989;DHT22;21192;40.182;44.516;2023-07-31T05:36:53;37.60;41.30
34989;DHT22;21192;40.182;44.516;2023-07-31T05:39:19;37.00;42.40
34989;DHT22;21192;40.182;44.516;2023-07-31T05:41:45;36.50;43.20
34989;DHT22;21192;40.182;44.516;2023-07-31T05:44:11;36.10;44.00
34989;DHT22;21192;40.182;44.516;2023-07-31T05:46:37;35.60;44.30
34989;DHT22;21192;40.182;44.516;2023-07-31T05:49:03;35.20;45.20
34989;DHT22;21192;40.182;44.516;2023-07-31T05:51:29;34.80;45.70
34989;DHT22;21192;40.182;44.516;2023-07-31T05:53:55;34.60;46.10
34989;DHT22;21192;40.182;44.516;2023-07-31T05:56:21;34.10;47.00
34989;DHT22;21192;40.182;44.516;2023-07-31T05:58:46;33.90;47.60
34989;DHT22;21192;40.182;44.516;2023-07-31T06:01:15;33.50;48.10
34989;DHT22;21192;40.182;44.516;2023-07-31T06:03:41;33.40;48.30
34989;DHT22;21192;40.182;44.516;2023-07-31T06:06:07;33.40;48.60
34989;DHT22;21192;40.182;44.516;2023-07-31T06:08:33;33.20;48.80
34989;DHT22;21192;40.182;44.516;2023-07-31T06:10:59;33.30;49.30
34989;DHT22;21192;40.182;44.516;2023-07-31T06:13:25;33.60;48.40
34989;DHT22;21192;40.182;44.516;2023-07-31T06:15:51;33.60;48.20
34989;DHT22;21192;40.182;44.516;2023-07-31T06:18:16;33.30;48.50
34989;DHT22;21192;40.182;44.516;2023-07-31T06:20:42;33.10;48.90
34989;DHT22;21192;40.182;44.516;2023-07-31T06:23:08;32.70;49.60
34989;DHT22;21192;40.182;44.516;2023-07-31T06:25:34;32.80;49.70
34989;DHT22;21192;40.182;44.516;2023-07-31T06:28:00;32.80;49.60
34989;DHT22;21192;40.182;44.516;2023-07-31T06:30:26;32.60;49.80
34989;DHT22;21192;40.182;44.516;2023-07-31T06:32:52;32.40;50.30
34989;DHT22;21192;40.182;44.516;2023-07-31T06:35:18;32.10;50.70
34989;DHT22;21192;40.182;44.516;2023-07-31T06:37:43;32.10;50.90
34989;DHT22;21192;40.182;44.516;2023-07-31T06:40:10;32.10;50.90
34989;DHT22;21192;40.182;44.516;2023-07-31T06:42:36;32.00;51.10
34989;DHT22;21192;40.182;44.516;2023-07-31T06:45:02;32.00;51.20
34989;DHT22;21192;40.182;44.516;2023-07-31T06:47:28;32.10;51.20
34989;DHT22;21192;40.182;44.516;2023-07-31T06:49:55;32.20;51.10
34989;DHT22;21192;40.182;44.516;2023-07-31T06:52:21;32.50;50.80
34989;DHT22;21192;40.182;44.516;2023-07-31T06:55:17;32.60;50.50
34989;DHT22;21192;40.182;44.516;2023-07-31T06:57:44;32.60;50.70
34989;DHT22;21192;40.182;44.516;2023-07-31T07:00:10;32.50;51.00
34989;DHT22;21192;40.182;44.516;2023-07-31T07:02:36;32.40;50.90
34989;DHT22;21192;40.182;44.516;2023-07-31T07:05:02;32.20;50.90
34989;DHT22;21192;40.182;44.516;2023-07-31T07:07:28;32.20;50.90
34989;DHT22;21192;40.182;44.516;2023-07-31T07:09:54;32.20;50.90
34989;DHT22;21192;40.182;44.516;2023-07-31T07:12:20;32.20;50.60
34989;DHT22;21192;40.182;44.516;2023-07-31T07:14:46;32.30;50.50
34989;DHT22;21192;40.182;44.516;2023-07-31T07:17:13;32.40;50.40
34989;DHT22;21192;40.182;44.516;2023-07-31T07:19:42;32.50;50.60
34989;DHT22;21192;40.182;44.516;2023-07-31T07:22:08;32.40;50.60
34989;DHT22;21192;40.182;44.516;2023-07-31T07:32:08;32.40;50.00
34989;DHT22;21192;40.182;44.516;2023-07-31T07:34:35;32.30;50.80
34989;DHT22;21192;40.182;44.516;2023-07-31T07:37:01;32.20;50.80
34989;DHT22;21192;40.182;44.516;2023-07-31T07:39:27;32.20;50.70
34989;DHT22;21192;40.182;44.516;2023-07-31T07:41:53;32.20;50.70
34989;DHT22;21192;40.182;44.516;2023-07-31T07:44:19;32.10;50.60
34989;DHT22;21192;40.182;44.516;2023-07-31T07:46:45;32.10;50.30
34989;DHT22;21192;40.182;44.516;2023-07-31T07:49:11;32.20;50.50
34989;DHT22;21192;40.182;44.516;2023-07-31T07:51:37;32.20;50.60
34989;DHT22;21192;40.182;44.516;2023-07-31T07:54:03;32.10;50.60
34989;DHT22;21192;40.182;44.516;2023-07-31T07:56:29;32.20;50.60
34989;DHT22;21192;40.182;44.516;2023-07-31T07:58:55;32.30;50.50
34989;DHT22;21192;40.182;44.516;2023-07-31T08:01:21;32.30;50.50
34989;DHT22;21192;40.182;44.516;2023-07-31T08:03:47;32.30;50.50
34989;DHT22;21192;40.182;44.516;2023-07-31T08:06:14;32.20;50.50
34989;DHT22;21192;40.182;44.516;2023-07-31T08:08:40;32.20;50.60
34989;DHT22;21192;40.182;44.516;2023-07-31T08:11:05;32.10;50.80
34989;DHT22;21192;40.182;44.516;2023-07-31T08:13:31;32.00;51.00
34989;DHT22;21192;40.182;44.516;2023-07-31T08:15:57;32.10;51.20
34989;DHT22;21192;40.182;44.516;2023-07-31T08:18:23;32.00;51.20
34989;DHT22;21192;40.182;44.516;2023-07-31T08:20:49;32.10;51.30
34989;DHT22;21192;40.182;44.516;2023-07-31T08:23:15;32.10;51.20
34989;DHT22;21192;40.182;44.516;2023-07-31T08:25:41;32.10;51.40
34989;DHT22;21192;40.182;44.516;2023-07-31T08:28:07;32.00;51.40
34989;DHT22;21192;40.182;44.516;2023-07-31T08:30:33;32.00;51.40
34989;DHT22;21192;40.182;44.516;2023-07-31T08:33:00;32.00;52.00
34989;DHT22;21192;40.182;44.516;2023-07-31T08:35:26;32.00;51.60
34989;DHT22;21192;40.182;44.516;2023-07-31T08:37:53;31.90;51.40
34989;DHT22;21192;40.182;44.516;2023-07-31T08:40:20;31.80;51.50
34989;DHT22;21192;40.182;44.516;2023-07-31T08:42:48;31.80;51.60
34989;DHT22;21192;40.182;44.516;2023-07-31T08:45:18;31.90;51.70
34989;DHT22;21192;40.182;44.516;2023-07-31T08:47:47;31.80;51.90
34989;DHT22;21192;40.182;44.516;2023-07-31T08:50:14;31.80;52.00
34989;DHT22;21192;40.182;44.516;2023-07-31T08:52:40;31.70;52.00
34989;DHT22;21192;40.182;44.516;2023-07-31T08:55:07;31.70;52.10
34989;DHT22;21192;40.182;44.516;2023-07-31T08:57:38;31.80;52.10
34989;DHT22;21192;40.182;44.516;2023-07-31T09:00:06;31.80;52.10
34989;DHT22;21192;40.182;44.516;2023-07-31T09:02:45;31.80;52.20
34989;DHT22;21192;40.182;44.516;2023-07-31T09:05:12;31.90;52.60
34989;DHT22;21192;40.182;44.516;2023-07-31T09:07:38;31.90;52.60
34989;DHT22;21192;40.182;44.516;2023-07-31T09:10:05;31.90;52.50
34989;DHT22;21192;40.182;44.516;2023-07-31T09:12:31;31.90;52.50
34989;DHT22;21192;40.182;44.516;2023-07-31T09:14:58;31.90;52.60
34989;DHT22;21192;40.182;44.516;2023-07-31T09:17:30;31.90;52.90
34989;DHT22;21192;40.182;44.516;2023-07-31T09:19:57;31.80;52.60
34989;DHT22;21192;40.182;44.516;2023-07-31T09:22:34;31.80;52.80
34989;DHT22;21192;40.182;44.516;2023-07-31T09:25:26;31.70;52.80
34989;DHT22;21192;40.182;44.516;2023-07-31T09:28:02;31.70;52.90
34989;DHT22;21192;40.182;44.516;2023-07-31T09:30:28;31.70;53.10
34989;DHT22;21192;40.182;44.516;2023-07-31T09:33:05;31.70;53.30
34989;DHT22;21192;40.182;44.516;2023-07-31T09:35:35;31.70;53.40
34989;DHT22;21192;40.182;44.516;2023-07-31T09:38:11;31.60;53.30
34989;DHT22;21192;40.182;44.516;2023-07-31T09:40:45;31.60;53.50
34989;DHT22;21192;40.182;44.516;2023-07-31T09:43:18;31.50;53.70
34989;DHT22;21192;40.182;44.516;2023-07-31T09:45:45;31.50;53.80
34989;DHT22;21192;40.182;44.516;2023-07-31T09:48:13;31.50;54.00
34989;DHT22;21192;40.182;44.516;2023-07-31T09:50:43;31.40;54.10
34989;DHT22;21192;40.182;44.516;2023-07-31T09:53:10;31.40;54.20
34989;DHT22;21192;40.182;44.516;2023-07-31T09:55:37;31.40;54.20
34989;DHT22;21192;40.182;44.516;2023-07-31T09:58:07;31.40;54.30
34989;DHT22;21192;40.182;44.516;2023-07-31T10:00:34;31.40;54.40
34989;DHT22;21192;40.182;44.516;2023-07-31T10:03:06;31.40;54.40
34989;DHT22;21192;40.182;44.516;2023-07-31T10:05:37;31.40;54.40
34989;DHT22;21192;40.182;44.516;2023-07-31T10:08:04;31.40;54.30
34989;DHT22;21192;40.182;44.516;2023-07-31T10:10:32;31.40;54.10
34989;DHT22;21192;40.182;44.516;2023-07-31T10:13:00;31.40;54.10
34989;DHT22;21192;40.182;44.516;2023-07-31T10:15:26;31.50;54.30
34989;DHT22;21192;40.182;44.516;2023-07-31T10:17:54;31.60;54.20
34989;DHT22;21192;40.182;44.516;2023-07-31T10:20:21;31.70;54.10
34989;DHT22;21192;40.182;44.516;2023-07-31T10:22:48;31.70;54.10
34989;DHT22;21192;40.182;44.516;2023-07-31T10:25:15;31.80;54.20
34989;DHT22;21192;40.182;44.516;2023-07-31T10:27:42;31.90;53.70
34989;DHT22;21192;40.182;44.516;2023-07-31T10:30:14;31.80;53.40
34989;DHT22;21192;40.182;44.516;2023-07-31T10:32:41;31.80;53.50
34989;DHT22;21192;40.182;44.516;2023-07-31T10:35:09;31.80;53.50
34989;DHT22;21192;40.182;44.516;2023-07-31T10:37:40;31.90;53.50
34989;DHT22;21192;40.182;44.516;2023-07-31T10:40:24;32.00;53.40
34989;DHT22;21192;40.182;44.516;2023-07-31T10:42:55;32.00;53.20
34989;DHT22;21192;40.182;44.516;2023-07-31T10:48:04;32.10;53.10
34989;DHT22;21192;40.182;44.516;2023-07-31T10:50:32;32.10;53.10
34989;DHT22;21192;40.182;44.516;2023-07-31T10:52:59;32.10;53.10
34989;DHT22;21192;40.182;44.516;2023-07-31T10:55:41;32.20;53.00
34989;DHT22;21192;40.182;44.516;2023-07-31T10:58:12;32.30;52.90
34989;DHT22;21192;40.182;44.516;2023-07-31T11:03:06;32.30;52.60
34989;DHT22;21192;40.182;44.516;2023-07-31T11:05:50;32.30;52.30
34989;DHT22;21192;40.182;44.516;2023-07-31T11:08:20;32.30;52.20
34989;DHT22;21192;40.182;44.516;2023-07-31T11:10:48;32.30;52.00
34989;DHT22;21192;40.182;44.516;2023-07-31T11:13:14;32.30;52.20
34989;DHT22;21192;40.182;44.516;2023-07-31T11:15:40;32.40;52.30
34989;DHT22;21192;40.182;44.516;2023-07-31T11:18:06;32.40;52.30
34989;DHT22;21192;40.182;44.516;2023-07-31T11:20:35;32.40;52.40
34989;DHT22;21192;40.182;44.516;2023-07-31T11:23:07;32.50;53.10
34989;DHT22;21192;40.182;44.516;2023-07-31T11:25:34;32.50;52.30
34989;DHT22;21192;40.182;44.516;2023-07-31T11:28:09;32.60;52.30
34989;DHT22;21192;40.182;44.516;2023-07-31T11:30:35;32.60;52.00
34989;DHT22;21192;40.182;44.516;2023-07-31T11:33:03;32.60;51.70
34989;DHT22;21192;40.182;44.516;2023-07-31T11:35:31;32.60;51.60
34989;DHT22;21192;40.182;44.516;2023-07-31T11:37:57;32.60;51.60
34989;DHT22;21192;40.182;44.516;2023-07-31T11:40:23;32.60;51.60
34989;DHT22;21192;40.182;44.516;2023-07-31T11:43:04;32.60;51.70
34989;DHT22;21192;40.182;44.516;2023-07-31T11:45:30;32.60;51.80
34989;DHT22;21192;40.182;44.516;2023-07-31T11:47:56;32.60;52.10
34989;DHT22;21192;40.182;44.516;2023-07-31T11:50:23;32.60;51.80
34989;DHT22;21192;40.182;44.516;2023-07-31T11:52:57;32.70;51.80
34989;DHT22;21192;40.182;44.516;2023-07-31T11:55:27;32.70;51.60
34989;DHT22;21192;40.182;44.516;2023-07-31T11:57:57;32.70;51.70
34989;DHT22;21192;40.182;44.516;2023-07-31T12:00:24;32.80;51.90
34989;DHT22;21192;40.182;44.516;2023-07-31T12:02:51;32.70;51.80
34989;DHT22;21192;40.182;44.516;2023-07-31T12:05:17;32.80;51.90
34989;DHT22;21192;40.182;44.516;2023-07-31T12:07:54;32.80;52.00
34989;DHT22;21192;40.182;44.516;2023-07-31T12:10:29;32.90;51.90
34989;DHT22;21192;40.182;44.516;2023-07-31T12:13:07;32.90;51.60
34989;DHT22;21192;40.182;44.516;2023-07-31T12:15:34;33.00;51.70
34989;DHT22;21192;40.182;44.516;2023-07-31T12:18:04;33.00;51.80
34989;DHT22;21192;40.182;44.516;2023-07-31T12:20:30;33.10;51.50
34989;DHT22;21192;40.182;44.516;2023-07-31T13:27:12;33.00;50.80
34989;DHT22;21192;40.182;44.516;2023-07-31T13:29:38;33.00;51.20
34989;DHT22;21192;40.182;44.516;2023-07-31T13:32:05;33.00;51.60
34989;DHT22;21192;40.182;44.516;2023-07-31T13:34:34;32.80;52.00
34989;DHT22;21192;40.182;44.516;2023-07-31T13:37:00;32.80;52.10
34989;DHT22;21192;40.182;44.516;2023-07-31T13:39:26;32.80;52.10
34989;DHT22;21192;40.182;44.516;2023-07-31T13:41:52;32.80;52.10
34989;DHT22;21192;40.182;44.516;2023-07-31T13:44:18;32.80;52.00
34989;DHT22;21192;40.182;44.516;2023-07-31T13:46:44;32.70;51.80
34989;DHT22;21192;40.182;44.516;2023-07-31T13:49:10;32.70;51.50
34989;DHT22;21192;40.182;44.516;2023-07-31T13:51:36;32.70;51.30
34989;DHT22;21192;40.182;44.516;2023-07-31T13:54:03;32.70;51.10
34989;DHT22;21192;40.182;44.516;2023-07-31T13:56:29;32.80;50.90
34989;DHT22;21192;40.182;44.516;2023-07-31T13:58:55;32.70;50.90
34989;DHT22;21192;40.182;44.516;2023-07-31T14:01:21;32.70;50.70
34989;DHT22;21192;40.182;44.516;2023-07-31T14:03:47;32.70;51.30
34989;DHT22;21192;40.182;44.516;2023-07-31T14:06:13;32.70;52.00
34989;DHT22;21192;40.182;44.516;2023-07-31T14:08:39;32.60;52.30
34989;DHT22;21192;40.182;44.516;2023-07-31T14:11:05;32.50;52.50
34989;DHT22;21192;40.182;44.516;2023-07-31T14:13:31;32.50;52.50
34989;DHT22;21192;40.182;44.516;2023-07-31T14:15:57;32.40;52.50
34989;DHT22;21192;40.182;44.516;2023-07-31T14:18:23;32.40;51.80
34989;DHT22;21192;40.182;44.516;2023-07-31T14:20:49;32.40;49.50
34989;DHT22;21192;40.182;44.516;2023-07-31T14:23:15;32.50;46.70
34989;DHT22;21192;40.182;44.516;2023-07-31T14:25:41;32.60;45.30
34989;DHT22;21192;40.182;44.516;2023-07-31T14:28:07;32.60;45.40
34989;DHT22;21192;40.182;44.516;2023-07-31T14:30:33;32.60;46.10
34989;DHT22;21192;40.182;44.516;2023-07-31T14:32:59;32.70;46.20
34989;DHT22;21192;40.182;44.516;2023-07-31T14:35:26;32.70;46.20
34989;DHT22;21192;40.182;44.516;2023-07-31T14:37:52;32.80;46.00
34989;DHT22;21192;40.182;44.516;2023-07-31T14:40:18;32.80;45.80
34989;DHT22;21192;40.182;44.516;2023-07-31T14:42:44;32.80;45.70
34989;DHT22;21192;40.182;44.516;2023-07-31T14:45:10;32.90;46.00
34989;DHT22;21192;40.182;44.516;2023-07-31T14:47:36;32.90;46.70
34989;DHT22;21192;40.182;44.516;2023-07-31T14:50:03;32.90;47.10
34989;DHT22;21192;40.182;44.516;2023-07-31T14:52:29;32.90;47.30
34989;DHT22;21192;40.182;44.516;2023-07-31T14:54:55;32.80;46.60
34989;DHT22;21192;40.182;44.516;2023-07-31T14:57:21;32.80;45.50
34989;DHT22;21192;40.182;44.516;2023-07-31T14:59:48;32.80;45.30
34989;DHT22;21192;40.182;44.516;2023-07-31T15:02:15;32.70;44.10
34989;DHT22;21192;40.182;44.516;2023-07-31T15:04:41;32.70;43.90
34989;DHT22;21192;40.182;44.516;2023-07-31T15:07:07;32.70;43.70
34989;DHT22;21192;40.182;44.516;2023-07-31T15:09:34;32.60;43.30
34989;DHT22;21192;40.182;44.516;2023-07-31T15:12:02;32.60;43.10
34989;DHT22;21192;40.182;44.516;2023-07-31T15:14:28;32.60;42.80
34989;DHT22;21192;40.182;44.516;2023-07-31T15:16:56;32.60;43.80
34989;DHT22;21192;40.182;44.516;2023-07-31T15:19:22;32.40;45.40
34989;DHT22;21192;40.182;44.516;2023-07-31T15:21:49;32.40;46.80
34989;DHT22;21192;40.182;44.516;2023-07-31T15:24:15;32.40;48.10
34989;DHT22;21192;40.182;44.516;2023-07-31T15:26:41;32.30;49.00
34989;DHT22;21192;40.182;44.516;2023-07-31T15:29:10;32.20;49.60
34989;DHT22;21192;40.182;44.516;2023-07-31T15:31:41;32.10;50.30
34989;DHT22;21192;40.182;44.516;2023-07-31T15:34:07;32.00;51.20
34989;DHT22;21192;40.182;44.516;2023-07-31T15:36:34;32.00;51.70
34989;DHT22;21192;40.182;44.516;2023-07-31T15:39:00;31.90;51.90
34989;DHT22;21192;40.182;44.516;2023-07-31T15:41:26;31.80;52.10
34989;DHT22;21192;40.182;44.516;2023-07-31T15:43:55;31.70;52.40
34989;DHT22;21192;40.182;44.516;2023-07-31T15:46:21;31.60;52.80
34989;DHT22;21192;40.182;44.516;2023-07-31T15:48:47;31.50;53.10
34989;DHT22;21192;40.182;44.516;2023-07-31T15:51:13;31.40;53.50
34989;DHT22;21192;40.182;44.516;2023-07-31T15:53:40;31.30;53.80
34989;DHT22;21192;40.182;44.516;2023-07-31T15:56:06;31.20;54.10
34989;DHT22;21192;40.182;44.516;2023-07-31T15:58:32;31.20;54.50
34989;DHT22;21192;40.182;44.516;2023-07-31T16:00:58;31.10;54.90
34989;DHT22;21192;40.182;44.516;2023-07-31T16:03:24;31.10;55.30
34989;DHT22;21192;40.182;44.516;2023-07-31T16:05:51;31.00;55.60
34989;DHT22;21192;40.182;44.516;2023-07-31T16:08:18;30.90;56.20
34989;DHT22;21192;40.182;44.516;2023-07-31T16:10:46;30.90;56.80
34989;DHT22;21192;40.182;44.516;2023-07-31T16:13:13;30.80;57.00
34989;DHT22;21192;40.182;44.516;2023-07-31T16:15:39;30.70;57.20
34989;DHT22;21192;40.182;44.516;2023-07-31T16:18:05;30.60;57.40
34989;DHT22;21192;40.182;44.516;2023-07-31T16:20:32;30.50;57.60
34989;DHT22;21192;40.182;44.516;2023-07-31T16:22:58;30.40;57.70
34989;DHT22;21192;40.182;44.516;2023-07-31T16:25:24;30.40;57.90
34989;DHT22;21192;40.182;44.516;2023-07-31T16:27:51;30.20;57.70
34989;DHT22;21192;40.182;44.516;2023-07-31T16:30:18;30.20;57.50
34989;DHT22;21192;40.182;44.516;2023-07-31T16:32:46;30.10;57.30
34989;DHT22;21192;40.182;44.516;2023-07-31T16:35:15;30.10;57.30
34989;DHT22;21192;40.182;44.516;2023-07-31T16:37:41;30.00;57.30